Time;durP1;ratioP1;P1;durP2;ratioP2;P2;SDS_P1;SDS_P2;PMS_P1;PMS_P2;Temp;Humidity;BMP_temperature;BMP_pressure;BME280_temperature;BME280_humidity;BME280_pressure;Samples;Min_cycle;Max_cycle;Signal;HPM_P1;HPM_P2
2021/03/10 00:00:13;;;;;;;55.72;34.22;;;;;;;;;;6222292;28;20133;-73
2021/03/10 00:03:14;;;;;;;68.85;40.10;;;;;;;;;;6225915;28;20076;-70
2021/03/10 00:06:16;;;;;;;83.70;47.50;;;;;;;;;;6217699;28;20077;-73
2021/03/10 00:09:17;;;;;;;94.90;49.45;;;;;;;;;;6219542;28;20480;-72
2021/03/10 00:12:18;;;;;;;69.45;35.90;;;;;;;;;;6219447;28;20073;-71
2021/03/10 00:15:20;;;;;;;88.72;47.45;;;;;;;;;;6220159;28;20191;-70
2021/03/10 00:18:21;;;;;;;32.85;21.90;;;;;;;;;;6219153;28;20061;-71
2021/03/10 00:21:23;;;;;;;30.73;18.75;;;;;;;;;;6217007;28;20065;-71
2021/03/10 00:24:24;;;;;;;23.80;15.43;;;;;;;;;;6206401;28;20050;-76
2021/03/10 00:27:25;;;;;;;20.02;13.98;;;;;;;;;;6215792;28;20049;-74
2021/03/10 00:30:26;;;;;;;19.60;13.82;;;;;;;;;;6214966;28;20042;-72
2021/03/10 00:33:27;;;;;;;20.55;13.65;;;;;;;;;;6221104;28;20084;-73
2021/03/10 00:36:29;;;;;;;21.88;13.13;;;;;;;;;;6217049;28;20132;-71
2021/03/10 00:39:30;;;;;;;26.02;11.82;;;;;;;;;;6216185;28;20046;-71
2021/03/10 00:42:31;;;;;;;25.60;11.23;;;;;;;;;;6214411;28;20164;-71
2021/03/10 00:45:32;;;;;;;18.77;11.20;;;;;;;;;;6218729;28;20165;-78
2021/03/10 00:48:33;;;;;;;17.17;10.93;;;;;;;;;;6221665;28;20133;-71
2021/03/10 00:51:35;;;;;;;18.10;11.27;;;;;;;;;;6207283;28;20084;-74
2021/03/10 00:54:37;;;;;;;18.52;11.65;;;;;;;;;;6213289;28;20496;-71
2021/03/10 00:57:38;;;;;;;23.38;13.13;;;;;;;;;;6216172;28;20100;-71
2021/03/10 01:00:39;;;;;;;18.98;11.80;;;;;;;;;;6222084;28;20125;-71
2021/03/10 01:03:41;;;;;;;23.52;13.68;;;;;;;;;;6237749;28;20044;-72
2021/03/10 01:06:43;;;;;;;20.15;13.50;;;;;;;;;;6245515;28;20370;-71
2021/03/10 01:09:44;;;;;;;25.38;15.57;;;;;;;;;;6234863;28;20503;-71
2021/03/10 01:12:45;;;;;;;26.85;16.65;;;;;;;;;;6241319;28;20111;-73
2021/03/10 01:15:46;;;;;;;25.38;17.00;;;;;;;;;;6246325;28;20468;-71
2021/03/10 01:18:47;;;;;;;27.30;18.20;;;;;;;;;;6242432;28;20128;-71
2021/03/10 01:21:49;;;;;;;30.67;17.60;;;;;;;;;;6233278;28;20048;-72
2021/03/10 01:24:50;;;;;;;27.33;17.80;;;;;;;;;;6236415;28;20477;-78
2021/03/10 01:27:51;;;;;;;27.13;16.65;;;;;;;;;;6240714;28;20127;-72
2021/03/10 01:30:52;;;;;;;26.98;17.83;;;;;;;;;;6235706;28;20540;-71
2021/03/10 01:33:53;;;;;;;30.67;19.05;;;;;;;;;;6244551;28;20120;-70
2021/03/10 01:36:55;;;;;;;31.30;18.90;;;;;;;;;;6239201;28;20047;-71
2021/03/10 01:39:56;;;;;;;35.63;19.20;;;;;;;;;;6233565;28;20128;-71
2021/03/10 01:43:01;;;;;;;27.13;18.75;;;;;;;;;;6240903;28;20081;-71
2021/03/10 01:46:02;;;;;;;29.25;18.05;;;;;;;;;;6234726;28;20073;-71
2021/03/10 01:49:03;;;;;;;27.27;18.17;;;;;;;;;;6235257;28;20140;-71
2021/03/10 01:52:05;;;;;;;28.35;19.42;;;;;;;;;;6238986;28;20164;-72
2021/03/10 01:55:07;;;;;;;29.92;19.05;;;;;;;;;;6239357;28;20138;-72
2021/03/10 01:58:08;;;;;;;29.52;18.92;;;;;;;;;;6238534;28;20053;-71
2021/03/10 02:01:09;;;;;;;30.02;19.00;;;;;;;;;;6242599;28;20144;-71
2021/03/10 02:04:11;;;;;;;26.98;18.95;;;;;;;;;;6501746;23;20076;-74
2021/03/10 02:07:18;;;;;;;28.42;18.75;;;;;;;;;;6217882;28;20065;-72
2021/03/10 02:10:26;;;;;;;30.80;19.67;;;;;;;;;;6218080;28;20049;-78
2021/03/10 02:13:35;;;;;;;29.63;19.45;;;;;;;;;;6218380;28;20204;-72
2021/03/10 02:16:44;;;;;;;29.33;19.88;;;;;;;;;;6220865;28;20140;-73
2021/03/10 02:20:04;;;;;;;31.55;19.38;;;;;;;;;;6221249;28;20496;-72
2021/03/10 02:23:30;;;;;;;29.85;19.38;;;;;;;;;;6217352;28;20129;-75
2021/03/10 02:26:47;;;;;;;27.20;19.73;;;;;;;;;;6218990;28;20518;-72
2021/03/10 02:29:49;;;;;;;27.27;19.58;;;;;;;;;;6218712;28;20112;-71
2021/03/10 02:32:53;;;;;;;30.35;19.42;;;;;;;;;;6219797;28;20488;-71
2021/03/10 02:35:56;;;;;;;28.30;18.85;;;;;;;;;;6220181;28;20399;-72
2021/03/10 02:39:00;;;;;;;30.55;20.40;;;;;;;;;;6220347;28;20097;-70
2021/03/10 02:42:01;;;;;;;32.85;19.55;;;;;;;;;;6220312;28;20944;-71
2021/03/10 02:45:05;;;;;;;28.45;18.42;;;;;;;;;;6218457;28;20169;-71
2021/03/10 02:48:07;;;;;;;27.33;18.02;;;;;;;;;;6217368;28;20133;-71
2021/03/10 02:51:08;;;;;;;29.75;18.88;;;;;;;;;;6226868;28;20084;-73
2021/03/10 02:54:09;;;;;;;26.13;17.88;;;;;;;;;;6225780;28;20125;-70
2021/03/10 02:57:10;;;;;;;29.15;18.85;;;;;;;;;;6225067;28;20081;-71
2021/03/10 03:00:15;;;;;;;28.65;18.35;;;;;;;;;;6222732;28;20133;-71
2021/03/10 03:03:16;;;;;;;25.00;17.77;;;;;;;;;;6216759;28;20182;-72
2021/03/10 03:06:17;;;;;;;26.50;18.27;;;;;;;;;;6215063;28;20414;-72
2021/03/10 03:09:19;;;;;;;28.05;18.30;;;;;;;;;;6214438;28;20588;-72
2021/03/10 03:12:20;;;;;;;25.45;16.95;;;;;;;;;;6221538;28;20559;-71
2021/03/10 03:15:23;;;;;;;22.92;15.60;;;;;;;;;;6218976;28;20041;-76
2021/03/10 03:18:26;;;;;;;25.60;16.13;;;;;;;;;;6220448;28;20064;-73
2021/03/10 03:21:28;;;;;;;22.77;16.17;;;;;;;;;;6216596;28;21824;-70
2021/03/10 03:24:29;;;;;;;23.25;16.35;;;;;;;;;;6219230;28;20124;-71
2021/03/10 03:28:09;;;;;;;25.98;17.00;;;;;;;;;;6218890;28;20056;-75
2021/03/10 03:31:13;;;;;;;25.63;17.10;;;;;;;;;;6217393;28;20144;-76
2021/03/10 03:34:15;;;;;;;24.35;16.05;;;;;;;;;;6219878;28;20124;-73
2021/03/10 03:37:16;;;;;;;25.63;16.92;;;;;;;;;;6216924;28;20129;-75
2021/03/10 03:40:18;;;;;;;24.15;15.90;;;;;;;;;;6218411;28;20050;-71
2021/03/10 03:43:19;;;;;;;27.15;16.65;;;;;;;;;;6214783;28;20076;-71
2021/03/10 03:46:21;;;;;;;28.92;17.33;;;;;;;;;;6204709;28;20069;-71
2021/03/10 03:49:22;;;;;;;26.55;15.93;;;;;;;;;;6214125;28;20037;-71
2021/03/10 03:52:23;;;;;;;25.35;16.45;;;;;;;;;;6221016;28;20125;-72
2021/03/10 03:55:24;;;;;;;27.35;16.98;;;;;;;;;;6219943;28;20046;-72
2021/03/10 03:58:25;;;;;;;23.88;16.73;;;;;;;;;;6219769;28;20054;-72
2021/03/10 04:01:27;;;;;;;24.15;16.08;;;;;;;;;;6224958;28;20140;-72
2021/03/10 04:04:28;;;;;;;25.92;16.58;;;;;;;;;;6227826;28;20092;-70
2021/03/10 04:07:30;;;;;;;24.27;16.33;;;;;;;;;;6227004;28;20105;-70
2021/03/10 04:10:32;;;;;;;22.70;15.93;;;;;;;;;;6223137;28;20129;-71
2021/03/10 04:13:33;;;;;;;28.38;16.88;;;;;;;;;;6207072;28;20152;-73
2021/03/10 04:16:35;;;;;;;25.48;17.30;;;;;;;;;;6216642;28;20078;-70
2021/03/10 04:19:36;;;;;;;29.35;17.20;;;;;;;;;;6212929;28;20141;-71
2021/03/10 04:22:37;;;;;;;24.95;17.85;;;;;;;;;;6218706;28;20069;-71
2021/03/10 04:25:38;;;;;;;24.98;16.60;;;;;;;;;;6217813;28;20516;-71
2021/03/10 04:28:39;;;;;;;26.73;17.70;;;;;;;;;;6219613;28;20172;-73
2021/03/10 04:31:41;;;;;;;22.92;15.68;;;;;;;;;;6215725;28;20121;-72
2021/03/10 04:34:42;;;;;;;25.10;16.27;;;;;;;;;;6218069;28;20128;-72
2021/03/10 04:37:43;;;;;;;25.33;16.40;;;;;;;;;;6215905;28;20128;-72
2021/03/10 04:40:44;;;;;;;27.67;16.80;;;;;;;;;;6218078;28;20128;-74
2021/03/10 04:43:45;;;;;;;28.08;16.52;;;;;;;;;;6216108;28;20066;-71
2021/03/10 04:46:47;;;;;;;27.13;17.38;;;;;;;;;;6219865;28;20054;-73
2021/03/10 04:49:48;;;;;;;28.65;16.77;;;;;;;;;;6215930;28;20066;-70
2021/03/10 04:52:49;;;;;;;24.73;16.38;;;;;;;;;;6217980;28;20070;-71
2021/03/10 04:55:50;;;;;;;30.42;17.42;;;;;;;;;;6218370;28;20124;-72
2021/03/10 04:58:51;;;;;;;30.85;17.25;;;;;;;;;;6213352;28;20512;-74
2021/03/10 05:01:53;;;;;;;27.02;18.75;;;;;;;;;;6214331;28;20062;-72
2021/03/10 05:04:54;;;;;;;28.30;18.27;;;;;;;;;;6214220;28;20054;-72
2021/03/10 05:07:55;;;;;;;30.17;18.98;;;;;;;;;;6212410;28;20215;-72
2021/03/10 05:10:56;;;;;;;31.08;19.42;;;;;;;;;;6212841;28;20120;-72
2021/03/10 05:13:58;;;;;;;41.78;20.50;;;;;;;;;;6213048;28;20176;-72
2021/03/10 05:17:00;;;;;;;32.10;20.27;;;;;;;;;;6219697;28;20073;-74
2021/03/10 05:20:03;;;;;;;38.13;20.45;;;;;;;;;;6215457;28;20054;-76
2021/03/10 05:23:04;;;;;;;31.17;21.23;;;;;;;;;;6219631;28;20056;-72
2021/03/10 05:26:05;;;;;;;35.03;22.55;;;;;;;;;;6214695;28;20052;-74
2021/03/10 05:29:06;;;;;;;33.13;20.83;;;;;;;;;;6222076;28;20077;-72
2021/03/10 05:32:08;;;;;;;32.13;21.30;;;;;;;;;;6220870;28;20112;-72
2021/03/10 05:35:10;;;;;;;34.22;20.58;;;;;;;;;;6219431;28;20755;-74
2021/03/10 05:38:11;;;;;;;31.80;21.05;;;;;;;;;;6219200;28;20077;-71
2021/03/10 05:41:12;;;;;;;40.42;23.23;;;;;;;;;;6220368;28;20481;-72
2021/03/10 05:44:14;;;;;;;37.72;23.45;;;;;;;;;;6221545;28;20156;-72
2021/03/10 05:47:16;;;;;;;37.90;23.15;;;;;;;;;;6217136;28;20085;-72
2021/03/10 05:50:17;;;;;;;39.08;24.25;;;;;;;;;;6224420;28;20404;-74
2021/03/10 05:53:23;;;;;;;37.95;24.27;;;;;;;;;;6219161;28;20477;-71
2021/03/10 05:56:24;;;;;;;39.85;25.17;;;;;;;;;;6221332;28;20049;-76
2021/03/10 05:59:27;;;;;;;38.67;25.83;;;;;;;;;;6218311;28;20085;-73
2021/03/10 06:02:30;;;;;;;42.60;24.92;;;;;;;;;;6217265;28;20533;-71
2021/03/10 06:05:31;;;;;;;43.60;26.23;;;;;;;;;;6222689;28;20057;-71
2021/03/10 06:08:33;;;;;;;39.92;26.50;;;;;;;;;;6224358;28;20089;-71
2021/03/10 06:11:34;;;;;;;41.70;27.13;;;;;;;;;;6218859;28;20407;-71
2021/03/10 06:14:36;;;;;;;39.40;26.05;;;;;;;;;;6222340;28;20132;-71
2021/03/10 06:17:45;;;;;;;40.20;25.20;;;;;;;;;;6223100;28;20069;-73
2021/03/10 06:20:46;;;;;;;46.92;27.67;;;;;;;;;;6221073;28;20500;-72
2021/03/10 06:23:52;;;;;;;42.58;25.42;;;;;;;;;;6219801;28;20125;-72
2021/03/10 06:26:54;;;;;;;39.58;25.33;;;;;;;;;;6216375;28;20081;-77
2021/03/10 06:29:56;;;;;;;36.97;24.23;;;;;;;;;;6217490;28;20038;-69
2021/03/10 06:32:58;;;;;;;39.50;24.38;;;;;;;;;;6217334;28;20081;-72
2021/03/10 06:35:59;;;;;;;36.88;24.35;;;;;;;;;;6222816;28;20175;-71
2021/03/10 06:39:01;;;;;;;43.08;24.45;;;;;;;;;;6222111;28;20136;-71
2021/03/10 06:42:12;;;;;;;38.20;23.50;;;;;;;;;;6219611;28;20168;-71
2021/03/10 06:45:13;;;;;;;37.05;23.90;;;;;;;;;;6220693;28;20065;-75
2021/03/10 06:48:19;;;;;;;42.30;25.77;;;;;;;;;;6222407;28;21149;-71
2021/03/10 06:51:21;;;;;;;43.53;26.90;;;;;;;;;;6219248;28;20050;-72
2021/03/10 06:54:22;;;;;;;47.65;24.92;;;;;;;;;;6228037;28;20487;-72
2021/03/10 06:57:24;;;;;;;45.60;26.15;;;;;;;;;;6217781;28;20064;-72
2021/03/10 07:00:25;;;;;;;44.15;26.60;;;;;;;;;;6226787;28;20066;-72
2021/03/10 07:03:29;;;;;;;45.35;25.90;;;;;;;;;;6222638;28;20054;-75
2021/03/10 07:06:30;;;;;;;45.60;26.35;;;;;;;;;;6220157;28;20448;-71
2021/03/10 07:09:32;;;;;;;41.00;26.52;;;;;;;;;;6222553;28;20628;-74
2021/03/10 07:12:33;;;;;;;42.15;26.17;;;;;;;;;;6220564;28;20119;-71
2021/03/10 07:15:35;;;;;;;47.92;26.10;;;;;;;;;;6217811;28;20649;-71
2021/03/10 07:18:37;;;;;;;46.40;26.77;;;;;;;;;;6217501;28;20552;-71
2021/03/10 07:21:41;;;;;;;39.53;25.77;;;;;;;;;;6215914;28;20092;-70
2021/03/10 07:24:52;;;;;;;46.45;27.17;;;;;;;;;;6218059;28;20067;-78
2021/03/10 07:27:55;;;;;;;40.28;27.13;;;;;;;;;;6213468;28;20091;-75
2021/03/10 07:30:57;;;;;;;40.83;26.30;;;;;;;;;;6217645;28;20125;-71
2021/03/10 07:33:59;;;;;;;51.08;28.40;;;;;;;;;;6215492;28;20041;-72
2021/03/10 07:37:14;;;;;;;44.40;25.85;;;;;;;;;;6223697;28;20141;-72
2021/03/10 07:40:16;;;;;;;40.28;26.30;;;;;;;;;;6221571;28;20096;-74
2021/03/10 07:43:31;;;;;;;42.70;26.95;;;;;;;;;;6223274;28;20062;-73
2021/03/10 07:46:34;;;;;;;45.85;27.30;;;;;;;;;;6223135;28;20058;-71
2021/03/10 07:49:37;;;;;;;40.97;25.33;;;;;;;;;;6221266;28;20086;-72
2021/03/10 07:52:49;;;;;;;45.92;28.42;;;;;;;;;;6220264;28;20121;-73
2021/03/10 07:55:50;;;;;;;39.47;26.13;;;;;;;;;;6217445;28;20143;-71
2021/03/10 07:58:51;;;;;;;37.58;26.20;;;;;;;;;;6215184;28;20136;-71
2021/03/10 08:02:02;;;;;;;37.50;23.70;;;;;;;;;;6217100;28;20073;-71
2021/03/10 08:05:05;;;;;;;30.92;22.52;;;;;;;;;;6217359;28;20255;-73
2021/03/10 08:08:07;;;;;;;33.75;23.67;;;;;;;;;;6218771;28;20257;-72
2021/03/10 08:11:11;;;;;;;30.83;22.15;;;;;;;;;;6216318;28;20080;-73
2021/03/10 08:14:13;;;;;;;30.58;21.80;;;;;;;;;;6213216;28;20050;-72
2021/03/10 08:17:21;;;;;;;28.77;21.08;;;;;;;;;;6215888;28;20080;-73
2021/03/10 08:20:30;;;;;;;30.52;20.60;;;;;;;;;;6218314;28;20169;-77
2021/03/10 08:23:31;;;;;;;36.22;22.63;;;;;;;;;;6218466;28;20042;-70
2021/03/10 08:26:33;;;;;;;34.20;23.73;;;;;;;;;;6222296;28;20393;-71
2021/03/10 08:29:34;;;;;;;31.92;24.52;;;;;;;;;;6217307;28;20061;-72
2021/03/10 08:32:36;;;;;;;37.78;23.60;;;;;;;;;;6214901;28;20389;-71
2021/03/10 08:35:38;;;;;;;33.10;22.95;;;;;;;;;;6217300;28;20407;-72
2021/03/10 08:38:39;;;;;;;31.00;22.30;;;;;;;;;;6220085;28;20138;-71
2021/03/10 08:41:47;;;;;;;28.75;21.63;;;;;;;;;;6221270;28;20137;-71
2021/03/10 08:44:50;;;;;;;31.88;22.42;;;;;;;;;;6222363;28;20078;-71
2021/03/10 08:48:00;;;;;;;32.30;21.35;;;;;;;;;;6219908;28;20050;-75
2021/03/10 08:51:05;;;;;;;27.25;19.67;;;;;;;;;;6216233;28;20112;-73
2021/03/10 08:54:06;;;;;;;26.27;19.67;;;;;;;;;;6216581;28;20426;-70
2021/03/10 08:57:09;;;;;;;31.88;20.48;;;;;;;;;;6218891;28;20072;-70
2021/03/10 09:00:17;;;;;;;25.00;19.38;;;;;;;;;;6217754;28;20556;-74
2021/03/10 09:03:19;;;;;;;28.58;20.13;;;;;;;;;;6219167;28;20053;-71
2021/03/10 09:06:23;;;;;;;28.73;20.83;;;;;;;;;;6220021;28;20065;-74
2021/03/10 09:09:25;;;;;;;27.73;18.60;;;;;;;;;;6217968;28;20043;-72
2021/03/10 09:12:27;;;;;;;27.92;18.52;;;;;;;;;;6220238;28;20115;-72
2021/03/10 09:15:29;;;;;;;25.02;18.15;;;;;;;;;;6218984;28;20181;-72
2021/03/10 09:18:34;;;;;;;25.80;18.15;;;;;;;;;;6219255;28;20042;-71
2021/03/10 09:21:39;;;;;;;23.38;17.10;;;;;;;;;;6221214;28;20060;-71
2021/03/10 09:24:52;;;;;;;25.83;18.17;;;;;;;;;;6218954;28;20049;-72
2021/03/10 09:28:05;;;;;;;27.13;19.30;;;;;;;;;;6220120;28;20475;-72
2021/03/10 09:31:13;;;;;;;25.52;18.52;;;;;;;;;;6217177;28;20115;-82
2021/03/10 09:34:14;;;;;;;25.40;19.27;;;;;;;;;;6215090;28;20042;-71
2021/03/10 09:37:17;;;;;;;25.05;19.27;;;;;;;;;;6211665;28;20146;-71
2021/03/10 09:40:20;;;;;;;27.27;19.55;;;;;;;;;;6213722;28;20038;-71
2021/03/10 09:43:25;;;;;;;24.65;18.58;;;;;;;;;;6213244;28;20145;-71
2021/03/10 09:46:36;;;;;;;29.00;19.38;;;;;;;;;;6211637;28;20049;-73
2021/03/10 09:49:44;;;;;;;27.08;19.60;;;;;;;;;;6214021;28;20200;-71
2021/03/10 09:52:46;;;;;;;27.15;20.45;;;;;;;;;;6213537;28;20053;-72
2021/03/10 09:55:48;;;;;;;27.10;20.20;;;;;;;;;;6217958;28;20053;-72
2021/03/10 09:58:49;;;;;;;26.02;19.25;;;;;;;;;;6215838;28;20060;-72
2021/03/10 10:01:51;;;;;;;26.95;20.00;;;;;;;;;;6216437;28;20463;-71
2021/03/10 10:04:57;;;;;;;25.88;19.42;;;;;;;;;;6214235;28;20058;-70
2021/03/10 10:07:59;;;;;;;26.75;19.65;;;;;;;;;;6210520;28;20493;-72
2021/03/10 10:11:00;;;;;;;24.00;19.50;;;;;;;;;;6212219;28;20129;-70
2021/03/10 10:14:01;;;;;;;26.02;20.10;;;;;;;;;;6211464;28;20135;-71
2021/03/10 10:17:04;;;;;;;26.48;19.42;;;;;;;;;;6217298;28;22028;-72
2021/03/10 10:20:07;;;;;;;26.88;21.35;;;;;;;;;;6218987;28;20180;-71
2021/03/10 10:23:09;;;;;;;29.48;21.40;;;;;;;;;;6219619;28;20125;-74
2021/03/10 10:26:10;;;;;;;27.40;20.88;;;;;;;;;;6217093;28;20077;-73
2021/03/10 10:29:11;;;;;;;27.00;21.10;;;;;;;;;;6212783;28;20049;-72
2021/03/10 10:32:13;;;;;;;29.95;21.27;;;;;;;;;;6213952;28;20148;-74
2021/03/10 10:35:15;;;;;;;25.48;20.90;;;;;;;;;;6216053;28;20069;-77
2021/03/10 10:38:17;;;;;;;27.92;20.50;;;;;;;;;;6215690;28;20480;-74
2021/03/10 10:41:18;;;;;;;24.55;19.55;;;;;;;;;;6216196;28;20145;-74
2021/03/10 10:44:19;;;;;;;26.55;19.58;;;;;;;;;;6218927;28;20586;-72
2021/03/10 10:47:20;;;;;;;27.05;19.45;;;;;;;;;;6218909;28;20235;-72
2021/03/10 10:50:21;;;;;;;24.92;19.85;;;;;;;;;;6216555;28;20038;-71
2021/03/10 10:53:23;;;;;;;26.55;21.52;;;;;;;;;;6213815;28;20091;-72
2021/03/10 10:56:24;;;;;;;28.02;20.73;;;;;;;;;;6219832;28;20038;-75
2021/03/10 10:59:26;;;;;;;23.80;20.70;;;;;;;;;;6214249;28;20049;-72
2021/03/10 11:02:27;;;;;;;23.63;20.30;;;;;;;;;;6216864;28;20081;-72
2021/03/10 11:05:28;;;;;;;23.65;19.73;;;;;;;;;;6218205;28;20188;-72
2021/03/10 11:08:30;;;;;;;24.70;19.77;;;;;;;;;;6221657;28;20163;-71
2021/03/10 11:11:31;;;;;;;25.85;19.40;;;;;;;;;;6215532;28;20394;-71
2021/03/10 11:14:33;;;;;;;23.55;21.05;;;;;;;;;;6216321;28;20050;-72
2021/03/10 11:17:34;;;;;;;24.70;21.05;;;;;;;;;;6224150;28;20148;-71
2021/03/10 11:20:36;;;;;;;22.50;20.10;;;;;;;;;;6217174;28;20065;-71
2021/03/10 11:23:37;;;;;;;28.13;20.48;;;;;;;;;;6220077;28;20365;-71
2021/03/10 11:26:38;;;;;;;24.17;21.30;;;;;;;;;;6214690;28;20046;-72
2021/03/10 11:29:39;;;;;;;24.23;20.67;;;;;;;;;;6215307;28;20445;-73
2021/03/10 11:32:41;;;;;;;26.45;19.98;;;;;;;;;;6218745;28;20667;-77
2021/03/10 11:35:42;;;;;;;23.60;18.60;;;;;;;;;;6220851;28;20132;-72
2021/03/10 11:38:44;;;;;;;24.98;20.02;;;;;;;;;;6224585;28;20720;-73
2021/03/10 11:41:45;;;;;;;23.90;21.40;;;;;;;;;;6224376;28;20124;-73
2021/03/10 11:44:46;;;;;;;23.00;20.50;;;;;;;;;;6220834;28;20481;-73
2021/03/10 11:47:48;;;;;;;24.77;21.17;;;;;;;;;;6222023;28;20128;-73
2021/03/10 11:50:49;;;;;;;23.38;20.92;;;;;;;;;;6220340;28;20714;-73
2021/03/10 11:53:51;;;;;;;23.45;20.58;;;;;;;;;;6219357;28;20420;-73
2021/03/10 11:56:52;;;;;;;22.70;20.30;;;;;;;;;;6219857;28;20145;-74
2021/03/10 11:59:54;;;;;;;25.05;21.35;;;;;;;;;;6214646;28;20124;-74
2021/03/10 12:02:55;;;;;;;22.90;20.17;;;;;;;;;;6216532;28;20046;-76
2021/03/10 12:05:56;;;;;;;23.70;21.20;;;;;;;;;;6212464;28;20085;-74
2021/03/10 12:08:58;;;;;;;25.63;21.50;;;;;;;;;;6218006;28;20161;-73
2021/03/10 12:11:59;;;;;;;24.63;21.95;;;;;;;;;;6215221;28;20069;-73
2021/03/10 12:15:00;;;;;;;26.45;21.42;;;;;;;;;;6220566;28;20132;-73
2021/03/10 12:18:01;;;;;;;24.65;21.08;;;;;;;;;;6215862;28;20057;-76
2021/03/10 12:21:02;;;;;;;25.38;21.67;;;;;;;;;;6214712;28;20061;-73
2021/03/10 12:24:05;;;;;;;26.13;23.23;;;;;;;;;;6202600;28;20121;-73
2021/03/10 12:27:07;;;;;;;;;;;;;;;;;;6218572;28;20426;-73
2021/03/10 12:30:09;;;;;;;25.95;20.90;;;;;;;;;;6216714;28;19928;-75
2021/03/10 12:33:10;;;;;;;25.88;22.55;;;;;;;;;;6221659;28;20084;-73
2021/03/10 12:36:11;;;;;;;24.08;19.75;;;;;;;;;;6214655;28;20517;-73
2021/03/10 12:39:13;;;;;;;30.98;21.73;;;;;;;;;;6214565;28;20050;-74
2021/03/10 12:42:15;;;;;;;26.10;22.67;;;;;;;;;;6215049;28;20050;-75
2021/03/10 12:45:17;;;;;;;26.45;22.98;;;;;;;;;;6217182;28;20397;-75
2021/03/10 12:48:18;;;;;;;27.42;21.98;;;;;;;;;;6219551;28;20149;-75
2021/03/10 12:51:19;;;;;;;28.23;23.15;;;;;;;;;;6220175;28;20543;-72
2021/03/10 12:54:21;;;;;;;26.25;21.13;;;;;;;;;;6217814;28;20061;-73
2021/03/10 12:57:22;;;;;;;25.30;21.40;;;;;;;;;;6211170;28;20209;-73
2021/03/10 13:00:24;;;;;;;25.55;21.85;;;;;;;;;;6216595;28;20049;-73
2021/03/10 13:03:25;;;;;;;26.05;22.13;;;;;;;;;;6210611;28;20085;-73
2021/03/10 13:06:26;;;;;;;25.75;21.52;;;;;;;;;;6211930;28;20061;-76
2021/03/10 13:09:29;;;;;;;25.40;22.05;;;;;;;;;;6213315;28;20077;-73
2021/03/10 13:12:31;;;;;;;25.65;21.65;;;;;;;;;;6216889;28;20089;-72
2021/03/10 13:15:32;;;;;;;22.93;19.93;;;;;;;;;;6214503;28;20156;-73
2021/03/10 13:18:34;;;;;;;26.17;20.65;;;;;;;;;;6210650;28;20479;-73
2021/03/10 13:21:35;;;;;;;25.17;21.38;;;;;;;;;;6215194;28;20070;-72
2021/03/10 13:24:37;;;;;;;23.45;20.92;;;;;;;;;;6211489;28;20504;-74
2021/03/10 13:27:38;;;;;;;24.27;20.88;;;;;;;;;;6182400;28;20045;-73
2021/03/10 13:30:39;;;;;;;24.85;21.50;;;;;;;;;;6216352;28;20128;-73
2021/03/10 13:33:40;;;;;;;26.27;22.65;;;;;;;;;;6192111;28;20128;-73
2021/03/10 13:36:41;;;;;;;24.05;21.45;;;;;;;;;;6216367;28;20085;-76
2021/03/10 13:39:43;;;;;;;26.80;22.75;;;;;;;;;;6215019;28;20140;-74
2021/03/10 13:42:44;;;;;;;25.52;22.08;;;;;;;;;;6214398;28;20480;-75
2021/03/10 13:45:45;;;;;;;26.60;20.17;;;;;;;;;;6217816;28;20149;-73
2021/03/10 13:48:47;;;;;;;23.05;19.48;;;;;;;;;;6174112;28;20058;-74
2021/03/10 13:51:48;;;;;;;23.58;19.63;;;;;;;;;;6194820;28;20089;-75
2021/03/10 13:54:53;;;;;;;24.83;19.38;;;;;;;;;;6219653;28;20212;-73
2021/03/10 13:57:54;;;;;;;23.05;18.83;;;;;;;;;;6222673;28;20095;-73
2021/03/10 14:00:55;;;;;;;24.90;19.27;;;;;;;;;;6220858;28;20125;-74
2021/03/10 14:03:56;;;;;;;23.23;19.13;;;;;;;;;;6215945;28;20045;-77
2021/03/10 14:06:57;;;;;;;25.13;18.73;;;;;;;;;;6219465;28;20137;-74
2021/03/10 14:09:59;;;;;;;23.02;20.05;;;;;;;;;;6221255;28;20077;-74
2021/03/10 14:13:00;;;;;;;23.90;19.67;;;;;;;;;;6218844;28;20237;-74
2021/03/10 14:16:01;;;;;;;22.50;19.02;;;;;;;;;;6216860;28;20536;-74
2021/03/10 14:19:02;;;;;;;22.67;19.38;;;;;;;;;;6218337;28;20046;-73
2021/03/10 14:22:04;;;;;;;26.13;20.27;;;;;;;;;;6216486;28;20079;-76
2021/03/10 14:25:07;;;;;;;22.75;20.02;;;;;;;;;;6221178;28;20061;-76
2021/03/10 14:28:08;;;;;;;20.55;18.33;;;;;;;;;;6218988;28;20694;-72
2021/03/10 14:31:09;;;;;;;24.67;18.98;;;;;;;;;;6222615;28;20053;-74
2021/03/10 14:34:11;;;;;;;22.38;17.63;;;;;;;;;;6213592;28;20046;-76
2021/03/10 14:37:12;;;;;;;25.15;17.15;;;;;;;;;;6214675;28;20054;-73
2021/03/10 14:40:14;;;;;;;20.85;16.90;;;;;;;;;;6217334;28;20052;-74
2021/03/10 14:43:16;;;;;;;20.40;16.10;;;;;;;;;;6214961;28;20115;-77
2021/03/10 14:46:18;;;;;;;19.15;16.10;;;;;;;;;;6217193;28;20058;-73
2021/03/10 14:49:19;;;;;;;19.27;17.27;;;;;;;;;;6214862;28;20116;-73
2021/03/10 14:52:20;;;;;;;20.48;16.52;;;;;;;;;;6217267;28;20401;-74
2021/03/10 14:55:22;;;;;;;19.27;16.88;;;;;;;;;;6217376;28;20096;-74
2021/03/10 14:58:23;;;;;;;21.63;16.63;;;;;;;;;;6216727;28;20053;-73
2021/03/10 15:01:24;;;;;;;25.48;16.25;;;;;;;;;;6218873;28;20504;-75
2021/03/10 15:04:26;;;;;;;19.63;15.50;;;;;;;;;;6214176;28;20081;-73
2021/03/10 15:07:27;;;;;;;20.17;15.60;;;;;;;;;;6215469;28;20054;-73
2021/03/10 15:10:29;;;;;;;19.17;15.05;;;;;;;;;;6215708;28;20049;-73
2021/03/10 15:13:30;;;;;;;22.40;16.70;;;;;;;;;;6214883;28;20052;-73
2021/03/10 15:16:31;;;;;;;24.25;17.23;;;;;;;;;;6216855;28;20108;-74
2021/03/10 15:19:32;;;;;;;21.23;16.85;;;;;;;;;;6220204;28;20046;-74
2021/03/10 15:22:34;;;;;;;18.85;16.85;;;;;;;;;;6217631;28;20137;-72
2021/03/10 15:25:36;;;;;;;19.48;17.08;;;;;;;;;;6217603;28;20056;-73
2021/03/10 15:28:37;;;;;;;22.25;18.88;;;;;;;;;;6213088;28;20421;-73
2021/03/10 15:31:38;;;;;;;22.25;19.02;;;;;;;;;;6220875;28;20128;-74
2021/03/10 15:34:39;;;;;;;22.58;19.05;;;;;;;;;;6210498;28;20050;-74
2021/03/10 15:37:40;;;;;;;23.55;21.08;;;;;;;;;;6216943;28;20452;-72
2021/03/10 15:40:42;;;;;;;23.08;20.42;;;;;;;;;;6214373;28;20074;-72
2021/03/10 15:43:43;;;;;;;24.38;18.83;;;;;;;;;;6220870;28;20494;-73
2021/03/10 15:46:44;;;;;;;26.40;20.15;;;;;;;;;;6213547;28;20050;-74
2021/03/10 15:49:46;;;;;;;26.02;20.27;;;;;;;;;;6216382;28;20045;-73
2021/03/10 15:52:48;;;;;;;23.13;19.45;;;;;;;;;;6215672;28;20398;-77
2021/03/10 15:55:50;;;;;;;21.57;17.87;;;;;;;;;;6217396;28;20192;-73
2021/03/10 15:58:52;;;;;;;23.98;16.85;;;;;;;;;;6222562;28;20456;-75
2021/03/10 16:01:53;;;;;;;23.88;18.23;;;;;;;;;;6213956;28;20048;-73
2021/03/10 16:04:54;;;;;;;25.02;16.65;;;;;;;;;;6212979;28;20057;-73
2021/03/10 16:07:56;;;;;;;19.33;16.50;;;;;;;;;;6215432;28;20129;-73
2021/03/10 16:10:58;;;;;;;18.58;15.20;;;;;;;;;;6211717;28;20601;-73
2021/03/10 16:13:59;;;;;;;24.98;16.80;;;;;;;;;;6217867;28;20065;-75
2021/03/10 16:17:00;;;;;;;25.48;16.40;;;;;;;;;;6185052;28;20105;-73
2021/03/10 16:20:01;;;;;;;18.98;14.88;;;;;;;;;;6212886;28;20096;-74
2021/03/10 16:23:02;;;;;;;19.60;16.25;;;;;;;;;;6215828;28;20191;-73
2021/03/10 16:26:04;;;;;;;20.42;14.25;;;;;;;;;;6213815;28;20049;-74
2021/03/10 16:29:05;;;;;;;18.67;14.52;;;;;;;;;;6214061;28;20080;-74
2021/03/10 16:32:07;;;;;;;17.35;13.60;;;;;;;;;;6213165;28;20096;-79
2021/03/10 16:35:08;;;;;;;19.15;14.10;;;;;;;;;;6214453;28;20132;-73
2021/03/10 16:38:09;;;;;;;18.98;13.75;;;;;;;;;;6208534;28;20571;-73
2021/03/10 16:41:11;;;;;;;23.35;15.55;;;;;;;;;;6211731;28;20077;-74
2021/03/10 16:44:12;;;;;;;23.75;16.20;;;;;;;;;;6211512;28;20096;-75
2021/03/10 16:47:15;;;;;;;18.45;15.35;;;;;;;;;;6210866;28;20046;-73
2021/03/10 16:50:18;;;;;;;23.83;15.57;;;;;;;;;;6217961;28;20068;-74
2021/03/10 16:53:19;;;;;;;21.02;14.48;;;;;;;;;;6205069;28;20110;-73
2021/03/10 16:56:22;;;;;;;21.90;14.05;;;;;;;;;;6218640;28;20077;-73
2021/03/10 16:59:23;;;;;;;21.70;14.38;;;;;;;;;;6211403;28;20049;-73
2021/03/10 17:02:24;;;;;;;18.30;13.80;;;;;;;;;;6210759;28;20144;-75
2021/03/10 17:05:25;;;;;;;23.52;14.30;;;;;;;;;;6210841;28;20046;-74
2021/03/10 17:08:26;;;;;;;20.52;13.98;;;;;;;;;;6210464;28;20096;-74
2021/03/10 17:11:28;;;;;;;21.55;15.15;;;;;;;;;;6210965;28;20085;-74
2021/03/10 17:14:29;;;;;;;22.35;14.73;;;;;;;;;;6212317;28;20113;-73
2021/03/10 17:17:30;;;;;;;24.27;15.85;;;;;;;;;;6213992;28;20107;-73
2021/03/10 17:20:31;;;;;;;23.52;14.02;;;;;;;;;;6211394;28;20143;-72
2021/03/10 17:23:32;;;;;;;18.42;13.88;;;;;;;;;;6216496;28;20057;-73
2021/03/10 17:26:34;;;;;;;19.25;13.10;;;;;;;;;;6221540;28;20127;-73
2021/03/10 17:29:36;;;;;;;22.42;13.82;;;;;;;;;;6219145;28;20042;-74
2021/03/10 17:32:37;;;;;;;18.38;13.13;;;;;;;;;;6212462;28;20507;-72
2021/03/10 17:35:39;;;;;;;21.65;12.75;;;;;;;;;;6206331;28;20188;-73
2021/03/10 17:38:40;;;;;;;19.45;12.65;;;;;;;;;;6209612;28;20624;-73
2021/03/10 17:41:42;;;;;;;18.40;13.07;;;;;;;;;;6204702;28;20438;-74